sensor_id;sensor_type;location;lat;lon;timestamp;temperature;humidity
1377;DHT22;682;52.502;13.488;2023-07-20T00:00:11;18.40;1.00
1377;DHT22;682;52.502;13.488;2023-07-20T00:02:39;18.40;1.00
1377;DHT22;682;52.502;13.488;2023-07-20T00:05:06;18.40;1.00
1377;DHT22;682;52.502;13.488;2023-07-20T00:07:33;18.30;1.00
1377;DHT22;682;52.502;13.488;2023-07-20T00:10:00;18.30;1.00
1377;DHT22;682;52.502;13.488;2023-07-20T00:12:29;18.30;1.00
1377;DHT22;682;52.502;13.488;2023-07-20T00:14:56;18.30;1.00
1377;DHT22;682;52.502;13.488;2023-07-20T00:17:23;18.30;1.00
1377;DHT22;682;52.502;13.488;2023-07-20T00:19:50;18.20;1.00
1377;DHT22;682;52.502;13.488;2023-07-20T00:22:18;18.10;1.00
1377;DHT22;682;52.502;13.488;2023-07-20T00:24:45;18.10;1.00
1377;DHT22;682;52.502;13.488;2023-07-20T00:27:12;18.10;1.00
1377;DHT22;682;52.502;13.488;2023-07-20T00:29:41;18.10;1.00
1377;DHT22;682;52.502;13.488;2023-07-20T00:32:08;18.10;1.00
1377;DHT22;682;52.502;13.488;2023-07-20T00:34:35;18.10;1.00
1377;DHT22;682;52.502;13.488;2023-07-20T00:37:02;18.00;1.00
1377;DHT22;682;52.502;13.488;2023-07-20T00:39:29;18.00;1.00
1377;DHT22;682;52.502;13.488;2023-07-20T00:41:56;18.00;1.00
1377;DHT22;682;52.502;13.488;2023-07-20T00:44:23;18.00;1.00
1377;DHT22;682;52.502;13.488;2023-07-20T00:46:51;18.00;1.00
1377;DHT22;682;52.502;13.488;2023-07-20T00:49:18;17.90;1.00
1377;DHT22;682;52.502;13.488;2023-07-20T00:51:48;17.90;1.00
1377;DHT22;682;52.502;13.488;2023-07-20T00:54:16;17.90;1.00
1377;DHT22;682;52.502;13.488;2023-07-20T00:56:43;17.90;1.00
1377;DHT22;682;52.502;13.488;2023-07-20T00:59:11;17.90;1.00
1377;DHT22;682;52.502;13.488;2023-07-20T01:04:08;17.90;1.00
1377;DHT22;682;52.502;13.488;2023-07-20T01:06:43;17.90;1.00
1377;DHT22;682;52.502;13.488;2023-07-20T01:09:16;18.00;1.00
1377;DHT22;682;52.502;13.488;2023-07-20T01:11:49;17.90;1.00
1377;DHT22;682;52.502;13.488;2023-07-20T01:14:18;17.90;1.00
1377;DHT22;682;52.502;13.488;2023-07-20T01:16:46;17.90;1.00
1377;DHT22;682;52.502;13.488;2023-07-20T01:19:16;17.90;1.00
1377;DHT22;682;52.502;13.488;2023-07-20T01:21:47;17.90;1.00
1377;DHT22;682;52.502;13.488;2023-07-20T01:24:58;17.80;1.00
1377;DHT22;682;52.502;13.488;2023-07-20T01:30:50;17.70;1.00
1377;DHT22;682;52.502;13.488;2023-07-20T01:33:21;17.70;1.00
1377;DHT22;682;52.502;13.488;2023-07-20T01:35:53;17.60;1.00
1377;DHT22;682;52.502;13.488;2023-07-20T01:38:21;17.60;1.00
1377;DHT22;682;52.502;13.488;2023-07-20T01:40:51;17.60;1.00
1377;DHT22;682;52.502;13.488;2023-07-20T01:43:18;17.60;1.00
1377;DHT22;682;52.502;13.488;2023-07-20T01:45:45;17.60;1.00
1377;DHT22;682;52.502;13.488;2023-07-20T01:48:13;17.70;1.00
1377;DHT22;682;52.502;13.488;2023-07-20T01:50:41;17.80;1.00
1377;DHT22;682;52.502;13.488;2023-07-20T01:53:08;17.80;1.00
1377;DHT22;682;52.502;13.488;2023-07-20T01:55:35;17.80;1.00
1377;DHT22;682;52.502;13.488;2023-07-20T01:58:02;17.80;1.00
1377;DHT22;682;52.502;13.488;2023-07-20T02:00:29;17.70;1.00
1377;DHT22;682;52.502;13.488;2023-07-20T02:02:56;17.70;1.00
1377;DHT22;682;52.502;13.488;2023-07-20T02:05:23;17.70;1.00
1377;DHT22;682;52.502;13.488;2023-07-20T02:07:52;17.70;1.00
1377;DHT22;682;52.502;13.488;2023-07-20T02:10:19;17.70;1.00
1377;DHT22;682;52.502;13.488;2023-07-20T02:12:46;17.80;1.00
1377;DHT22;682;52.502;13.488;2023-07-20T02:15:14;17.70;1.00
1377;DHT22;682;52.502;13.488;2023-07-20T02:17:42;17.70;1.00
1377;DHT22;682;52.502;13.488;2023-07-20T02:20:10;17.70;1.00
1377;DHT22;682;52.502;13.488;2023-07-20T02:22:37;17.80;1.00
1377;DHT22;682;52.502;13.488;2023-07-20T02:25:07;17.80;1.00
1377;DHT22;682;52.502;13.488;2023-07-20T02:27:34;17.80;1.00
1377;DHT22;682;52.502;13.488;2023-07-20T02:30:01;17.70;1.00
1377;DHT22;682;52.502;13.488;2023-07-20T02:32:29;17.70;1.00
1377;DHT22;682;52.502;13.488;2023-07-20T02:34:57;17.60;1.00
1377;DHT22;682;52.502;13.488;2023-07-20T02:37:24;17.60;1.00
1377;DHT22;682;52.502;13.488;2023-07-20T02:39:51;17.50;1.00
1377;DHT22;682;52.502;13.488;2023-07-20T02:42:19;17.50;1.00
1377;DHT22;682;52.502;13.488;2023-07-20T02:44:48;17.50;1.00
1377;DHT22;682;52.502;13.488;2023-07-20T02:47:15;17.50;1.00
1377;DHT22;682;52.502;13.488;2023-07-20T02:49:42;17.40;1.00
1377;DHT22;682;52.502;13.488;2023-07-20T02:52:09;17.40;1.00
1377;DHT22;682;52.502;13.488;2023-07-20T02:54:36;17.40;1.00
1377;DHT22;682;52.502;13.488;2023-07-20T02:57:03;17.40;1.00
1377;DHT22;682;52.502;13.488;2023-07-20T02:59:32;17.40;1.00
1377;DHT22;682;52.502;13.488;2023-07-20T03:01:59;17.30;1.00
1377;DHT22;682;52.502;13.488;2023-07-20T03:04:26;17.20;1.00
1377;DHT22;682;52.502;13.488;2023-07-20T03:06:53;17.10;1.00
1377;DHT22;682;52.502;13.488;2023-07-20T03:09:20;17.10;1.00
1377;DHT22;682;52.502;13.488;2023-07-20T03:11:48;17.20;1.00
1377;DHT22;682;52.502;13.488;2023-07-20T03:14:15;17.20;1.00
1377;DHT22;682;52.502;13.488;2023-07-20T03:16:43;17.20;1.00
1377;DHT22;682;52.502;13.488;2023-07-20T03:19:10;17.20;1.00
1377;DHT22;682;52.502;13.488;2023-07-20T03:21:37;17.20;1.00
1377;DHT22;682;52.502;13.488;2023-07-20T03:24:06;17.30;1.00
1377;DHT22;682;52.502;13.488;2023-07-20T03:26:34;17.20;1.00
1377;DHT22;682;52.502;13.488;2023-07-20T03:29:01;17.20;1.00
1377;DHT22;682;52.502;13.488;2023-07-20T03:31:28;17.20;1.00
1377;DHT22;682;52.502;13.488;2023-07-20T03:33:57;17.20;1.00
1377;DHT22;682;52.502;13.488;2023-07-20T03:36:24;17.20;1.00
1377;DHT22;682;52.502;13.488;2023-07-20T03:38:51;17.30;1.00
1377;DHT22;682;52.502;13.488;2023-07-20T03:41:17;17.30;1.00
1377;DHT22;682;52.502;13.488;2023-07-20T03:43:45;17.30;1.00
1377;DHT22;682;52.502;13.488;2023-07-20T03:46:12;17.30;1.00
1377;DHT22;682;52.502;13.488;2023-07-20T03:48:39;17.40;1.00
1377;DHT22;682;52.502;13.488;2023-07-20T03:51:07;17.40;1.00
1377;DHT22;682;52.502;13.488;2023-07-20T03:53:34;17.40;1.00
1377;DHT22;682;52.502;13.488;2023-07-20T03:56:01;17.30;1.00
1377;DHT22;682;52.502;13.488;2023-07-20T03:58:28;17.30;1.00
1377;DHT22;682;52.502;13.488;2023-07-20T04:00:55;17.30;1.00
1377;DHT22;682;52.502;13.488;2023-07-20T04:03:23;17.20;1.00
1377;DHT22;682;52.502;13.488;2023-07-20T04:05:53;17.20;1.00
1377;DHT22;682;52.502;13.488;2023-07-20T04:08:22;17.20;1.00
1377;DHT22;682;52.502;13.488;2023-07-20T04:10:50;17.30;1.00
1377;DHT22;682;52.502;13.488;2023-07-20T04:13:17;17.20;1.00
1377;DHT22;682;52.502;13.488;2023-07-20T04:15:44;17.20;1.00
1377;DHT22;682;52.502;13.488;2023-07-20T04:18:11;17.30;1.00
1377;DHT22;682;52.502;13.488;2023-07-20T04:20:38;17.30;1.00
1377;DHT22;682;52.502;13.488;2023-07-20T04:23:05;17.30;1.00
1377;DHT22;682;52.502;13.488;2023-07-20T04:25:33;17.40;1.00
1377;DHT22;682;52.502;13.488;2023-07-20T04:28:05;17.40;1.00
1377;DHT22;682;52.502;13.488;2023-07-20T04:30:34;17.50;1.00
1377;DHT22;682;52.502;13.488;2023-07-20T04:33:02;17.50;1.00
1377;DHT22;682;52.502;13.488;2023-07-20T04:35:45;17.60;1.00
1377;DHT22;682;52.502;13.488;2023-07-20T04:38:13;17.60;1.00
1377;DHT22;682;52.502;13.488;2023-07-20T04:40:42;17.60;1.00
1377;DHT22;682;52.502;13.488;2023-07-20T04:43:09;17.70;1.00
1377;DHT22;682;52.502;13.488;2023-07-20T04:45:36;17.70;1.00
1377;DHT22;682;52.502;13.488;2023-07-20T04:48:05;17.70;1.00
1377;DHT22;682;52.502;13.488;2023-07-20T04:50:32;17.70;1.00
1377;DHT22;682;52.502;13.488;2023-07-20T04:52:59;17.80;1.00
1377;DHT22;682;52.502;13.488;2023-07-20T04:55:27;17.90;1.00
1377;DHT22;682;52.502;13.488;2023-07-20T04:57:56;17.90;1.00
1377;DHT22;682;52.502;13.488;2023-07-20T05:00:23;17.90;1.00
1377;DHT22;682;52.502;13.488;2023-07-20T05:02:50;18.00;1.00
1377;DHT22;682;52.502;13.488;2023-07-20T05:05:16;18.00;1.00
1377;DHT22;682;52.502;13.488;2023-07-20T05:07:43;18.00;1.00
1377;DHT22;682;52.502;13.488;2023-07-20T05:10:11;18.00;1.00
1377;DHT22;682;52.502;13.488;2023-07-20T05:12:38;18.00;1.00
1377;DHT22;682;52.502;13.488;2023-07-20T05:15:07;18.10;1.00
1377;DHT22;682;52.502;13.488;2023-07-20T05:17:34;18.20;1.00
1377;DHT22;682;52.502;13.488;2023-07-20T05:20:01;18.30;1.00
1377;DHT22;682;52.502;13.488;2023-07-20T05:22:30;18.30;1.00
1377;DHT22;682;52.502;13.488;2023-07-20T05:24:57;18.30;1.00
1377;DHT22;682;52.502;13.488;2023-07-20T05:27:24;18.30;1.00
1377;DHT22;682;52.502;13.488;2023-07-20T05:29:51;18.20;1.00
1377;DHT22;682;52.502;13.488;2023-07-20T05:32:19;18.00;1.00
1377;DHT22;682;52.502;13.488;2023-07-20T05:34:46;17.90;1.00
1377;DHT22;682;52.502;13.488;2023-07-20T05:37:13;17.90;1.00
1377;DHT22;682;52.502;13.488;2023-07-20T05:39:40;18.00;1.00
1377;DHT22;682;52.502;13.488;2023-07-20T05:42:07;18.10;1.00
1377;DHT22;682;52.502;13.488;2023-07-20T05:44:34;18.30;1.00
1377;DHT22;682;52.502;13.488;2023-07-20T05:47:01;18.30;1.00
1377;DHT22;682;52.502;13.488;2023-07-20T05:49:31;18.50;1.00
1377;DHT22;682;52.502;13.488;2023-07-20T05:51:59;18.70;1.00
1377;DHT22;682;52.502;13.488;2023-07-20T05:54:26;18.70;1.00
1377;DHT22;682;52.502;13.488;2023-07-20T05:56:54;18.80;1.00
1377;DHT22;682;52.502;13.488;2023-07-20T05:59:21;18.70;1.00
1377;DHT22;682;52.502;13.488;2023-07-20T06:01:49;18.80;1.00
1377;DHT22;682;52.502;13.488;2023-07-20T06:04:16;18.90;1.00
1377;DHT22;682;52.502;13.488;2023-07-20T06:06:45;19.20;1.00
1377;DHT22;682;52.502;13.488;2023-07-20T06:09:13;19.20;1.00
1377;DHT22;682;52.502;13.488;2023-07-20T06:11:41;19.40;1.00
1377;DHT22;682;52.502;13.488;2023-07-20T06:14:07;19.40;1.00
1377;DHT22;682;52.502;13.488;2023-07-20T06:16:34;19.30;1.00
1377;DHT22;682;52.502;13.488;2023-07-20T06:19:01;19.20;1.00
1377;DHT22;682;52.502;13.488;2023-07-20T06:21:29;19.20;1.00
1377;DHT22;682;52.502;13.488;2023-07-20T06:23:57;19.20;1.00
1377;DHT22;682;52.502;13.488;2023-07-20T06:26:25;19.30;1.00
1377;DHT22;682;52.502;13.488;2023-07-20T06:28:52;19.20;1.00
1377;DHT22;682;52.502;13.488;2023-07-20T06:31:18;19.20;1.00
1377;DHT22;682;52.502;13.488;2023-07-20T06:33:45;19.00;1.00
1377;DHT22;682;52.502;13.488;2023-07-20T06:36:12;19.00;1.00
1377;DHT22;682;52.502;13.488;2023-07-20T06:38:39;18.90;1.00
1377;DHT22;682;52.502;13.488;2023-07-20T06:41:08;18.80;1.00
1377;DHT22;682;52.502;13.488;2023-07-20T06:43:35;18.70;1.00
1377;DHT22;682;52.502;13.488;2023-07-20T06:46:02;18.80;1.00
1377;DHT22;682;52.502;13.488;2023-07-20T06:48:29;18.90;1.00
1377;DHT22;682;52.502;13.488;2023-07-20T06:50:56;18.90;1.00
1377;DHT22;682;52.502;13.488;2023-07-20T06:53:23;19.00;1.00
1377;DHT22;682;52.502;13.488;2023-07-20T06:55:50;19.20;1.00
1377;DHT22;682;52.502;13.488;2023-07-20T06:58:18;19.30;1.00
1377;DHT22;682;52.502;13.488;2023-07-20T07:00:47;19.40;1.00
1377;DHT22;682;52.502;13.488;2023-07-20T07:03:14;19.60;1.00
1377;DHT22;682;52.502;13.488;2023-07-20T07:05:41;19.40;1.00
1377;DHT22;682;52.502;13.488;2023-07-20T07:08:08;19.40;1.00
1377;DHT22;682;52.502;13.488;2023-07-20T07:10:36;19.40;1.00
1377;DHT22;682;52.502;13.488;2023-07-20T07:13:03;19.50;1.00
1377;DHT22;682;52.502;13.488;2023-07-20T07:15:31;19.60;1.00
1377;DHT22;682;52.502;13.488;2023-07-20T07:17:58;19.50;1.00
1377;DHT22;682;52.502;13.488;2023-07-20T07:20:26;19.40;1.00
1377;DHT22;682;52.502;13.488;2023-07-20T07:22:53;19.40;1.00
1377;DHT22;682;52.502;13.488;2023-07-20T07:25:21;19.30;1.00
1377;DHT22;682;52.502;13.488;2023-07-20T07:27:48;19.50;1.00
1377;DHT22;682;52.502;13.488;2023-07-20T07:30:15;19.70;1.00
1377;DHT22;682;52.502;13.488;2023-07-20T07:32:44;19.90;1.00
1377;DHT22;682;52.502;13.488;2023-07-20T07:35:10;20.20;1.00
1377;DHT22;682;52.502;13.488;2023-07-20T07:37:38;20.10;1.00
1377;DHT22;682;52.502;13.488;2023-07-20T07:40:07;20.00;1.00
1377;DHT22;682;52.502;13.488;2023-07-20T07:42:34;20.10;1.00
1377;DHT22;682;52.502;13.488;2023-07-20T07:45:01;20.20;1.00
1377;DHT22;682;52.502;13.488;2023-07-20T07:47:28;20.40;1.00
1377;DHT22;682;52.502;13.488;2023-07-20T07:49:57;20.70;1.00
1377;DHT22;682;52.502;13.488;2023-07-20T07:52:24;20.90;1.00
1377;DHT22;682;52.502;13.488;2023-07-20T07:54:51;20.80;1.00
1377;DHT22;682;52.502;13.488;2023-07-20T07:57:17;20.80;1.00
1377;DHT22;682;52.502;13.488;2023-07-20T07:59:44;21.00;1.00
1377;DHT22;682;52.502;13.488;2023-07-20T08:02:11;21.10;1.00
1377;DHT22;682;52.502;13.488;2023-07-20T08:04:38;21.30;1.00
1377;DHT22;682;52.502;13.488;2023-07-20T08:07:07;21.40;1.00
1377;DHT22;682;52.502;13.488;2023-07-20T08:09:34;21.50;1.00
1377;DHT22;682;52.502;13.488;2023-07-20T08:12:01;21.60;1.00
1377;DHT22;682;52.502;13.488;2023-07-20T08:14:29;21.60;1.00
1377;DHT22;682;52.502;13.488;2023-07-20T08:16:56;21.70;1.00
1377;DHT22;682;52.502;13.488;2023-07-20T08:19:24;21.90;1.00
1377;DHT22;682;52.502;13.488;2023-07-20T08:21:51;22.20;1.00
1377;DHT22;682;52.502;13.488;2023-07-20T08:24:19;22.30;1.00
1377;DHT22;682;52.502;13.488;2023-07-20T08:26:46;22.30;1.00
1377;DHT22;682;52.502;13.488;2023-07-20T08:29:13;22.10;1.00
1377;DHT22;682;52.502;13.488;2023-07-20T08:31:39;22.10;1.00
1377;DHT22;682;52.502;13.488;2023-07-20T08:34:06;22.10;1.00
1377;DHT22;682;52.502;13.488;2023-07-20T08:36:33;22.20;1.00
1377;DHT22;682;52.502;13.488;2023-07-20T08:39:01;22.50;1.00
1377;DHT22;682;52.502;13.488;2023-07-20T08:41:30;22.50;1.00
1377;DHT22;682;52.502;13.488;2023-07-20T08:43:58;22.50;1.00
1377;DHT22;682;52.502;13.488;2023-07-20T08:46:27;22.50;1.00
1377;DHT22;682;52.502;13.488;2023-07-20T08:48:56;22.70;1.00
1377;DHT22;682;52.502;13.488;2023-07-20T08:51:23;22.90;1.00
1377;DHT22;682;52.502;13.488;2023-07-20T08:53:52;22.90;1.00
1377;DHT22;682;52.502;13.488;2023-07-20T08:56:20;22.80;1.00
1377;DHT22;682;52.502;13.488;2023-07-20T08:58:49;22.80;1.00
1377;DHT22;682;52.502;13.488;2023-07-20T09:01:17;22.70;1.00
1377;DHT22;682;52.502;13.488;2023-07-20T09:03:45;22.60;1.00
1377;DHT22;682;52.502;13.488;2023-07-20T09:06:13;22.40;1.00
1377;DHT22;682;52.502;13.488;2023-07-20T09:08:40;22.00;1.00
1377;DHT22;682;52.502;13.488;2023-07-20T09:11:07;21.90;1.00
1377;DHT22;682;52.502;13.488;2023-07-20T09:13:35;21.90;1.00
1377;DHT22;682;52.502;13.488;2023-07-20T09:16:03;22.00;1.00
1377;DHT22;682;52.502;13.488;2023-07-20T09:18:32;22.30;1.00
1377;DHT22;682;52.502;13.488;2023-07-20T09:21:01;22.50;1.00
1377;DHT22;682;52.502;13.488;2023-07-20T09:23:32;23.00;1.00
1377;DHT22;682;52.502;13.488;2023-07-20T09:26:00;23.30;1.00
1377;DHT22;682;52.502;13.488;2023-07-20T09:28:27;23.40;1.00
1377;DHT22;682;52.502;13.488;2023-07-20T09:30:55;23.40;1.00
1377;DHT22;682;52.502;13.488;2023-07-20T09:33:25;23.60;1.00
1377;DHT22;682;52.502;13.488;2023-07-20T09:35:52;23.80;1.00
1377;DHT22;682;52.502;13.488;2023-07-20T09:38:19;24.00;1.00
1377;DHT22;682;52.502;13.488;2023-07-20T09:40:46;24.40;1.00
1377;DHT22;682;52.502;13.488;2023-07-20T09:43:15;24.70;1.00
1377;DHT22;682;52.502;13.488;2023-07-20T09:45:43;25.30;1.00
1377;DHT22;682;52.502;13.488;2023-07-20T09:48:11;25.50;1.00
1377;DHT22;682;52.502;13.488;2023-07-20T09:50:48;25.20;1.00
1377;DHT22;682;52.502;13.488;2023-07-20T09:53:17;24.90;1.00
1377;DHT22;682;52.502;13.488;2023-07-20T09:55:45;24.30;1.00
1377;DHT22;682;52.502;13.488;2023-07-20T09:58:13;23.90;1.00
1377;DHT22;682;52.502;13.488;2023-07-20T10:00:41;23.50;1.00
1377;DHT22;682;52.502;13.488;2023-07-20T10:03:11;22.90;1.00
1377;DHT22;682;52.502;13.488;2023-07-20T10:05:40;22.60;1.00
1377;DHT22;682;52.502;13.488;2023-07-20T10:08:12;22.20;1.00
1377;DHT22;682;52.502;13.488;2023-07-20T10:10:41;21.70;1.00
1377;DHT22;682;52.502;13.488;2023-07-20T10:13:13;20.90;1.00
1377;DHT22;682;52.502;13.488;2023-07-20T10:15:45;20.30;1.00
1377;DHT22;682;52.502;13.488;2023-07-20T10:18:17;19.70;1.00
1377;DHT22;682;52.502;13.488;2023-07-20T10:20:49;19.40;1.00
1377;DHT22;682;52.502;13.488;2023-07-20T10:23:19;19.40;1.00
1377;DHT22;682;52.502;13.488;2023-07-20T10:25:49;19.60;1.00
1377;DHT22;682;52.502;13.488;2023-07-20T10:28:17;19.90;1.00
1377;DHT22;682;52.502;13.488;2023-07-20T10:30:44;20.40;1.00
1377;DHT22;682;52.502;13.488;2023-07-20T10:33:12;20.90;1.00
1377;DHT22;682;52.502;13.488;2023-07-20T10:35:52;21.20;1.00
1377;DHT22;682;52.502;13.488;2023-07-20T10:38:38;21.60;1.00
1377;DHT22;682;52.502;13.488;2023-07-20T10:41:16;21.90;1.00
1377;DHT22;682;52.502;13.488;2023-07-20T10:43:44;22.00;1.00
1377;DHT22;682;52.502;13.488;2023-07-20T10:46:11;21.70;1.00
1377;DHT22;682;52.502;13.488;2023-07-20T10:48:59;21.50;1.00
1377;DHT22;682;52.502;13.488;2023-07-20T10:51:27;21.50;1.00
1377;DHT22;682;52.502;13.488;2023-07-20T10:53:57;21.80;1.00
1377;DHT22;682;52.502;13.488;2023-07-20T10:56:27;21.80;1.00
1377;DHT22;682;52.502;13.488;2023-07-20T10:58:58;21.60;1.00
1377;DHT22;682;52.502;13.488;2023-07-20T11:01:28;21.80;1.00
1377;DHT22;682;52.502;13.488;2023-07-20T11:03:58;21.90;1.00
1377;DHT22;682;52.502;13.488;2023-07-20T11:06:33;21.90;1.00
1377;DHT22;682;52.502;13.488;2023-07-20T11:09:07;21.90;1.00
1377;DHT22;682;52.502;13.488;2023-07-20T11:11:37;21.70;1.00
1377;DHT22;682;52.502;13.488;2023-07-20T11:14:05;21.60;1.00
1377;DHT22;682;52.502;13.488;2023-07-20T11:16:38;21.60;1.00
1377;DHT22;682;52.502;13.488;2023-07-20T11:19:13;21.80;1.00
1377;DHT22;682;52.502;13.488;2023-07-20T11:21:41;22.40;1.00
1377;DHT22;682;52.502;13.488;2023-07-20T11:24:10;23.70;1.00
1377;DHT22;682;52.502;13.488;2023-07-20T11:26:49;24.30;1.00
1377;DHT22;682;52.502;13.488;2023-07-20T11:29:18;24.70;1.00
1377;DHT22;682;52.502;13.488;2023-07-20T11:31:45;24.70;1.00
1377;DHT22;682;52.502;13.488;2023-07-20T11:34:15;24.60;1.00
1377;DHT22;682;52.502;13.488;2023-07-20T11:36:43;24.50;1.00
1377;DHT22;682;52.502;13.488;2023-07-20T11:39:14;24.20;1.00
1377;DHT22;682;52.502;13.488;2023-07-20T11:41:45;23.80;1.00
1377;DHT22;682;52.502;13.488;2023-07-20T11:44:15;24.20;1.00
1377;DHT22;682;52.502;13.488;2023-07-20T11:46:42;25.60;1.00
1377;DHT22;682;52.502;13.488;2023-07-20T11:49:09;26.00;1.00
1377;DHT22;682;52.502;13.488;2023-07-20T11:51:37;25.60;1.00
1377;DHT22;682;52.502;13.488;2023-07-20T11:54:07;26.10;1.00
1377;DHT22;682;52.502;13.488;2023-07-20T11:56:35;28.20;1.00
1377;DHT22;682;52.502;13.488;2023-07-20T11:59:03;29.30;1.00
1377;DHT22;682;52.502;13.488;2023-07-20T12:01:30;29.20;1.00
1377;DHT22;682;52.502;13.488;2023-07-20T12:03:59;29.20;1.00
1377;DHT22;682;52.502;13.488;2023-07-20T12:06:28;30.50;1.00
1377;DHT22;682;52.502;13.488;2023-07-20T12:08:57;31.30;1.00
1377;DHT22;682;52.502;13.488;2023-07-20T12:11:31;30.70;1.00
1377;DHT22;682;52.502;13.488;2023-07-20T12:14:00;29.30;1.00
1377;DHT22;682;52.502;13.488;2023-07-20T12:16:28;27.90;1.00
1377;DHT22;682;52.502;13.488;2023-07-20T12:19:00;26.70;1.00
1377;DHT22;682;52.502;13.488;2023-07-20T12:21:32;25.60;1.00
1377;DHT22;682;52.502;13.488;2023-07-20T12:24:00;24.70;1.00
1377;DHT22;682;52.502;13.488;2023-07-20T12:26:31;24.00;1.00
1377;DHT22;682;52.502;13.488;2023-07-20T12:29:00;23.40;1.00
1377;DHT22;682;52.502;13.488;2023-07-20T12:31:29;22.90;1.00
1377;DHT22;682;52.502;13.488;2023-07-20T12:33:57;22.60;1.00
1377;DHT22;682;52.502;13.488;2023-07-20T12:36:25;22.50;1.00
1377;DHT22;682;52.502;13.488;2023-07-20T12:38:52;22.70;1.00
1377;DHT22;682;52.502;13.488;2023-07-20T12:41:19;23.40;1.00
1377;DHT22;682;52.502;13.488;2023-07-20T12:43:46;23.80;1.00
1377;DHT22;682;52.502;13.488;2023-07-20T12:46:14;23.90;1.00
1377;DHT22;682;52.502;13.488;2023-07-20T12:48:41;24.10;1.00
1377;DHT22;682;52.502;13.488;2023-07-20T12:51:09;24.40;1.00
1377;DHT22;682;52.502;13.488;2023-07-20T12:53:37;24.70;1.00
1377;DHT22;682;52.502;13.488;2023-07-20T12:56:05;26.00;1.00
1377;DHT22;682;52.502;13.488;2023-07-20T12:58:32;28.30;1.00
1377;DHT22;682;52.502;13.488;2023-07-20T13:00:59;30.30;1.00
1377;DHT22;682;52.502;13.488;2023-07-20T13:03:27;32.00;1.00
1377;DHT22;682;52.502;13.488;2023-07-20T13:05:54;33.30;1.00
1377;DHT22;682;52.502;13.488;2023-07-20T13:08:24;34.30;1.00
1377;DHT22;682;52.502;13.488;2023-07-20T13:10:52;35.30;1.00
1377;DHT22;682;52.502;13.488;2023-07-20T13:13:19;35.90;1.00
1377;DHT22;682;52.502;13.488;2023-07-20T13:15:46;36.50;1.00
1377;DHT22;682;52.502;13.488;2023-07-20T13:18:13;37.00;1.00
1377;DHT22;682;52.502;13.488;2023-07-20T13:20:43;37.00;1.00
1377;DHT22;682;52.502;13.488;2023-07-20T13:23:10;36.90;1.00
1377;DHT22;682;52.502;13.488;2023-07-20T13:25:37;36.60;1.00
1377;DHT22;682;52.502;13.488;2023-07-20T13:28:05;36.70;1.00
1377;DHT22;682;52.502;13.488;2023-07-20T13:30:32;37.10;1.00
1377;DHT22;682;52.502;13.488;2023-07-20T13:32:59;37.40;1.00
1377;DHT22;682;52.502;13.488;2023-07-20T13:35:26;37.50;1.00
1377;DHT22;682;52.502;13.488;2023-07-20T13:37:55;37.40;1.00
1377;DHT22;682;52.502;13.488;2023-07-20T13:40:21;37.40;1.00
1377;DHT22;682;52.502;13.488;2023-07-20T13:42:48;37.70;1.00
1377;DHT22;682;52.502;13.488;2023-07-20T13:45:16;38.20;1.00
1377;DHT22;682;52.502;13.488;2023-07-20T13:47:43;38.40;1.00
1377;DHT22;682;52.502;13.488;2023-07-20T13:50:10;38.40;1.00
1377;DHT22;682;52.502;13.488;2023-07-20T13:52:37;38.30;1.00
1377;DHT22;682;52.502;13.488;2023-07-20T13:55:07;38.00;1.00
1377;DHT22;682;52.502;13.488;2023-07-20T13:57:34;38.00;1.00
1377;DHT22;682;52.502;13.488;2023-07-20T14:00:02;38.10;1.00
1377;DHT22;682;52.502;13.488;2023-07-20T14:02:30;38.40;1.00
1377;DHT22;682;52.502;13.488;2023-07-20T14:04:57;38.30;1.00
1377;DHT22;682;52.502;13.488;2023-07-20T14:07:25;38.60;1.00
1377;DHT22;682;52.502;13.488;2023-07-20T14:09:52;39.00;1.00
1377;DHT22;682;52.502;13.488;2023-07-20T14:12:20;38.70;1.00
1377;DHT22;682;52.502;13.488;2023-07-20T14:14:47;39.20;1.00
1377;DHT22;682;52.502;13.488;2023-07-20T14:17:14;39.40;1.00
1377;DHT22;682;52.502;13.488;2023-07-20T14:19:41;39.60;1.00
1377;DHT22;682;52.502;13.488;2023-07-20T14:22:09;38.00;1.00
1377;DHT22;682;52.502;13.488;2023-07-20T14:24:36;36.40;1.00
1377;DHT22;682;52.502;13.488;2023-07-20T14:27:04;36.40;1.00
1377;DHT22;682;52.502;13.488;2023-07-20T14:29:34;37.30;1.00
1377;DHT22;682;52.502;13.488;2023-07-20T14:32:02;37.80;1.00
1377;DHT22;682;52.502;13.488;2023-07-20T14:34:31;38.10;1.00
1377;DHT22;682;52.502;13.488;2023-07-20T14:36:59;37.20;1.00
1377;DHT22;682;52.502;13.488;2023-07-20T14:39:26;36.60;1.00
1377;DHT22;682;52.502;13.488;2023-07-20T14:41:53;36.80;1.00
1377;DHT22;682;52.502;13.488;2023-07-20T14:44:20;36.60;1.00
1377;DHT22;682;52.502;13.488;2023-07-20T14:46:48;36.80;1.00
1377;DHT22;682;52.502;13.488;2023-07-20T14:49:16;37.20;1.00
1377;DHT22;682;52.502;13.488;2023-07-20T14:51:44;37.50;1.00
1377;DHT22;682;52.502;13.488;2023-07-20T14:54:13;38.20;1.00
1377;DHT22;682;52.502;13.488;2023-07-20T14:56:49;38.20;1.00
1377;DHT22;682;52.502;13.488;2023-07-20T14:59:16;38.00;1.00
1377;DHT22;682;52.502;13.488;2023-07-20T15:01:44;37.50;1.00
1377;DHT22;682;52.502;13.488;2023-07-20T15:04:15;37.40;1.00
1377;DHT22;682;52.502;13.488;2023-07-20T15:06:42;37.60;1.00
1377;DHT22;682;52.502;13.488;2023-07-20T15:09:09;37.00;1.00
1377;DHT22;682;52.502;13.488;2023-07-20T15:11:36;37.00;1.00
1377;DHT22;682;52.502;13.488;2023-07-20T15:14:04;36.70;1.00
1377;DHT22;682;52.502;13.488;2023-07-20T15:16:33;35.40;1.00
1377;DHT22;682;52.502;13.488;2023-07-20T15:19:01;34.20;1.00
1377;DHT22;682;52.502;13.488;2023-07-20T15:21:29;33.30;1.00
1377;DHT22;682;52.502;13.488;2023-07-20T15:23:57;32.80;1.00
1377;DHT22;682;52.502;13.488;2023-07-20T15:26:24;33.30;1.00
1377;DHT22;682;52.502;13.488;2023-07-20T15:28:51;33.30;1.00
1377;DHT22;682;52.502;13.488;2023-07-20T15:31:18;33.50;1.00
1377;DHT22;682;52.502;13.488;2023-07-20T15:33:45;33.40;1.00
1377;DHT22;682;52.502;13.488;2023-07-20T15:36:12;32.90;1.00
1377;DHT22;682;52.502;13.488;2023-07-20T15:38:40;32.80;1.00
1377;DHT22;682;52.502;13.488;2023-07-20T15:41:07;32.30;1.00
1377;DHT22;682;52.502;13.488;2023-07-20T15:43:34;32.60;1.00
1377;DHT22;682;52.502;13.488;2023-07-20T15:46:30;32.60;1.00
1377;DHT22;682;52.502;13.488;2023-07-20T15:49:05;31.60;1.00
1377;DHT22;682;52.502;13.488;2023-07-20T15:51:32;29.90;1.00
1377;DHT22;682;52.502;13.488;2023-07-20T15:54:00;28.90;1.00
1377;DHT22;682;52.502;13.488;2023-07-20T15:56:28;28.60;1.00
1377;DHT22;682;52.502;13.488;2023-07-20T15:58:54;28.50;1.00
1377;DHT22;682;52.502;13.488;2023-07-20T16:01:22;28.60;1.00
1377;DHT22;682;52.502;13.488;2023-07-20T16:03:49;28.20;1.00
1377;DHT22;682;52.502;13.488;2023-07-20T16:06:16;27.40;1.00
1377;DHT22;682;52.502;13.488;2023-07-20T16:08:43;26.90;1.00
1377;DHT22;682;52.502;13.488;2023-07-20T16:11:12;26.50;1.00
1377;DHT22;682;52.502;13.488;2023-07-20T16:13:39;25.90;1.00
1377;DHT22;682;52.502;13.488;2023-07-20T16:16:06;25.50;1.00
1377;DHT22;682;52.502;13.488;2023-07-20T16:18:33;25.20;1.00
1377;DHT22;682;52.502;13.488;2023-07-20T16:21:00;24.90;1.00
1377;DHT22;682;52.502;13.488;2023-07-20T16:23:27;24.80;1.00
1377;DHT22;682;52.502;13.488;2023-07-20T16:25:53;24.70;1.00
1377;DHT22;682;52.502;13.488;2023-07-20T16:28:22;24.60;1.00